createdAt,value
2023-04-18T02:17:48.826Z,101118.49
2023-04-18T09:19:54.308Z,101173.36
2023-04-18T09:22:22.731Z,101169.73
2023-04-18T09:24:57.523Z,101170.26
2023-04-18T09:27:26.375Z,101168.55
2023-04-18T09:29:57.373Z,101165.80
2023-04-18T09:33:03.109Z,101168.05
2023-04-18T09:35:33.114Z,101164.95
2023-04-18T09:38:02.644Z,101163.05
2023-04-18T09:40:32.783Z,101164.67
2023-04-18T09:43:01.766Z,101160.96
2023-04-18T09:45:30.768Z,101158.30
2023-04-18T09:47:59.831Z,101159.35
2023-04-18T09:50:28.859Z,101159.95
2023-04-18T09:52:58.393Z,101157.07
2023-04-18T09:55:27.714Z,101154.06
2023-04-18T09:57:57.958Z,101154.02
2023-04-18T10:00:30.471Z,101155.69
2023-04-18T10:03:08.577Z,101155.36
2023-04-18T10:05:41.537Z,101153.60
2023-04-18T10:08:10.910Z,101154.77
2023-04-18T10:10:41.076Z,101150.84
2023-04-18T10:13:12.194Z,101151.98
2023-04-18T10:15:43.651Z,101145.95
2023-04-18T10:18:19.567Z,101142.66
2023-04-18T10:20:48.673Z,101146.94
2023-04-18T10:23:32.797Z,101140.46
2023-04-18T10:26:03.125Z,101135.05
2023-04-18T10:28:57.005Z,101135.77
2023-04-18T10:31:29.926Z,101135.90
2023-04-18T10:34:05.146Z,101132.47
2023-04-18T10:36:34.717Z,101128.04
2023-04-18T10:39:21.596Z,101121.23
2023-04-18T10:41:51.849Z,101123.85
2023-04-18T10:44:23.382Z,101123.63
2023-04-18T10:46:52.727Z,101123.08
2023-04-18T10:49:26.211Z,101120.13
2023-04-18T10:52:01.929Z,101123.07
2023-04-18T10:54:55.977Z,101124.04
2023-04-18T10:57:26.779Z,101123.02
2023-04-18T10:59:56.005Z,101117.23
2023-04-18T11:02:30.493Z,101117.73
2023-04-18T11:05:07.382Z,101113.83
2023-04-18T11:07:41.334Z,101105.19
2023-04-18T11:10:10.531Z,101105.33
2023-04-18T11:12:42.517Z,101104.20
2023-04-18T11:15:12.970Z,101100.77
2023-04-18T11:17:41.603Z,101100.04
2023-04-18T11:20:15.263Z,101096.35
2023-04-18T11:22:44.999Z,101103.17
2023-04-18T11:25:14.222Z,101102.82
2023-04-18T11:27:44.424Z,101097.67
2023-04-18T11:30:14.516Z,101091.28
2023-04-18T11:32:43.441Z,101091.48
2023-04-18T11:35:16.454Z,101091.55
2023-04-18T11:37:50.317Z,101087.95
2023-04-18T11:40:18.929Z,101084.71
2023-04-18T11:42:47.810Z,101084.36
2023-04-18T11:45:16.586Z,101084.64
2023-04-18T11:47:46.565Z,101085.45
2023-04-18T11:50:15.964Z,101085.63
2023-04-18T11:52:50.871Z,101087.98
2023-04-18T11:55:25.427Z,101084.89
2023-04-18T11:57:55.039Z,101081.61
2023-04-18T12:00:37.772Z,101079.63
2023-04-18T12:03:13.363Z,101074.84
2023-04-18T12:05:43.584Z,101073.91
2023-04-18T12:08:19.062Z,101076.19
2023-04-18T12:10:53.197Z,101075.27
2023-04-18T12:13:27.688Z,101074.52
2023-04-18T12:15:57.332Z,101072.64
2023-04-18T12:18:28.112Z,101072.79
2023-04-18T12:21:02.613Z,101070.53
2023-04-18T12:23:44.008Z,101064.70
2023-04-18T12:26:20.466Z,101063.43
2023-04-18T12:28:55.573Z,101061.09
2023-04-18T12:31:29.326Z,101056.81
2023-04-18T12:34:00.270Z,101058.05
2023-04-18T12:36:47.691Z,101054.38
2023-04-18T12:39:17.967Z,101052.43
2023-04-18T12:41:49.578Z,101049.02
2023-04-18T12:44:19.308Z,101046.52
2023-04-18T12:46:48.996Z,101048.30
2023-04-18T12:49:18.169Z,101050.14
2023-04-18T12:51:47.095Z,101049.80
2023-04-18T12:54:16.246Z,101045.38
2023-04-18T12:56:46.774Z,101043.58
2023-04-18T12:59:15.858Z,101038.42
2023-04-18T13:01:44.841Z,101040.38
2023-04-18T13:04:14.067Z,101038.48
2023-04-18T13:07:03.568Z,101034.20
2023-04-18T13:09:34.820Z,101033.86
2023-04-18T13:12:03.790Z,101032.23
2023-04-18T13:14:49.532Z,101028.16
2023-04-18T13:17:18.391Z,101031.08
2023-04-18T13:19:47.311Z,101024.80
2023-04-18T13:22:16.245Z,101022.73
2023-04-18T13:24:44.926Z,101020.02
2023-04-18T13:27:14.565Z,101020.02
2023-04-18T13:29:46.022Z,101018.38
2023-04-18T13:32:14.843Z,101016.98
2023-04-18T13:34:46.367Z,101015.81
2023-04-18T13:37:15.889Z,101016.30
2023-04-18T13:39:44.811Z,101014.59
2023-04-18T13:42:15.956Z,101015.49
2023-04-18T13:44:44.884Z,101014.09
2023-04-18T13:47:13.701Z,101010.05
2023-04-18T13:55:52.071Z,101005.09
2023-04-18T13:58:20.841Z,100999.77
2023-04-18T14:00:51.119Z,101003.95
2023-04-18T14:03:20.124Z,101002.27
2023-04-18T14:05:49.223Z,101001.26
2023-04-18T14:08:17.776Z,101001.26
2023-04-18T14:10:46.721Z,101002.34
2023-04-18T14:13:16.007Z,101000.98
2023-04-18T14:18:57.971Z,100995.64
2023-04-18T14:21:29.828Z,100995.61
2023-04-18T14:23:58.957Z,100991.94
2023-04-18T14:26:29.007Z,100993.13
2023-04-18T14:29:05.420Z,100995.83
2023-04-18T14:31:34.173Z,100990.81
2023-04-18T14:34:03.208Z,100990.17
2023-04-18T14:36:33.160Z,100985.63
2023-04-18T14:39:02.164Z,100983.35
2023-04-18T14:41:30.737Z,100981.98
2023-04-18T14:43:59.745Z,100977.91
2023-04-18T14:46:28.679Z,100977.23
2023-04-18T14:48:57.639Z,100974.54
2023-04-18T14:51:26.690Z,100973.17
2023-04-18T14:53:55.821Z,100970.77
2023-04-18T14:56:24.594Z,100971.34
2023-04-18T14:58:53.000Z,100969.23
2023-04-18T15:01:24.506Z,100973.42
2023-04-18T15:03:54.700Z,100970.56
2023-04-18T15:06:23.501Z,100966.93
2023-04-18T15:08:52.714Z,100964.94
2023-04-18T15:11:21.282Z,100963.14
2023-04-18T15:14:02.730Z,100965.16
2023-04-18T15:17:06.174Z,100961.55
2023-04-18T15:19:34.915Z,100963.34
2023-04-18T15:22:03.512Z,100962.73
2023-04-18T15:24:32.081Z,100963.12
2023-04-18T15:27:00.566Z,100964.09
2023-04-18T15:29:29.382Z,100963.63
2023-04-18T15:32:06.112Z,100966.50
2023-04-18T15:34:35.630Z,100971.89
2023-04-18T15:37:05.188Z,100966.82
2023-04-18T15:39:34.545Z,100963.77
2023-04-18T15:42:04.266Z,100964.28
2023-04-18T15:44:33.104Z,100967.81
2023-04-18T15:47:02.426Z,100966.66
2023-04-18T15:49:33.182Z,100963.73
2023-04-18T15:52:03.725Z,100963.54
2023-04-18T15:54:35.306Z,100962.27
2023-04-18T15:57:26.406Z,100959.77
2023-04-18T15:59:57.201Z,100957.33
2023-04-18T16:02:28.025Z,100961.92
2023-04-18T16:05:04.046Z,100958.64
2023-04-18T16:07:38.530Z,100957.66
2023-04-18T16:10:13.153Z,100956.86
2023-04-18T16:12:44.519Z,100955.01
2023-04-18T16:15:14.057Z,100951.02
2023-04-18T16:17:44.054Z,100952.59
2023-04-18T16:20:16.490Z,100952.91
2023-04-18T16:22:46.693Z,100950.75
2023-04-18T16:25:15.859Z,100952.14
2023-04-18T16:27:48.315Z,100948.38
2023-04-18T16:30:17.526Z,100943.16
2023-04-18T16:32:47.291Z,100943.66
2023-04-18T16:35:16.751Z,100942.40
2023-04-18T16:37:48.293Z,100944.35
2023-04-18T16:40:20.627Z,100944.72
2023-04-18T16:42:49.632Z,100941.13
2023-04-18T16:52:27.453Z,100934.05
2023-04-18T16:54:56.662Z,100938.11
2023-04-18T16:57:30.373Z,100938.95
2023-04-18T17:00:02.373Z,100935.20
2023-04-18T17:02:32.017Z,100935.15
2023-04-18T17:05:02.678Z,100931.88
2023-04-18T17:07:31.924Z,100930.19
2023-04-18T17:10:00.744Z,100926.02
2023-04-18T17:12:31.678Z,100929.70
2023-04-18T17:15:04.714Z,100929.64
2023-04-18T17:17:35.821Z,100931.72
2023-04-18T17:20:07.289Z,100928.80
2023-04-18T17:22:39.140Z,100928.56
2023-04-18T17:29:32.549Z,100931.08
2023-04-18T17:32:01.316Z,100935.08
2023-04-18T17:34:29.784Z,100932.90
2023-04-18T17:36:58.562Z,100929.64
2023-04-18T17:39:27.859Z,100928.14
2023-04-18T17:41:56.585Z,100930.59
2023-04-18T17:44:29.645Z,100927.17
2023-04-18T17:46:58.920Z,100927.08
2023-04-18T17:49:35.675Z,100926.67
2023-04-18T17:52:12.311Z,100928.41
2023-04-18T17:54:44.310Z,100927.30
2023-04-18T17:57:18.204Z,100929.92
2023-04-18T17:59:57.129Z,100929.17
2023-04-18T18:02:28.436Z,100927.15
2023-04-18T18:05:01.820Z,100930.25
2023-04-18T18:07:35.084Z,100932.45
2023-04-18T18:10:11.872Z,100929.36
2023-04-18T18:12:45.264Z,100930.85
2023-04-18T18:15:17.519Z,100930.42
2023-04-18T18:17:50.019Z,100930.86
2023-04-18T18:20:22.924Z,100928.66
2023-04-18T18:22:55.402Z,100926.86
2023-04-18T18:25:27.326Z,100925.06
2023-04-18T18:28:03.764Z,100917.21
2023-04-18T18:30:32.387Z,100920.11
2023-04-18T18:33:02.259Z,100916.89
2023-04-18T18:35:31.095Z,100912.80
2023-04-18T18:37:59.606Z,100914.27
2023-04-18T18:40:28.237Z,100912.14
2023-04-18T18:42:57.645Z,100911.40
2023-04-18T18:45:26.416Z,100912.23
2023-04-18T18:47:55.425Z,100912.02
2023-04-18T18:50:24.066Z,100911.65
2023-04-18T18:52:52.584Z,100906.49
2023-04-18T18:55:24.867Z,100903.65
2023-04-18T18:57:55.379Z,100900.06
2023-04-18T19:00:42.050Z,100899.81
2023-04-18T19:03:13.495Z,100895.64
2023-04-18T19:05:43.279Z,100893.10
2023-04-18T19:08:14.542Z,100893.04
2023-04-18T19:10:44.127Z,100894.05
2023-04-18T19:13:13.963Z,100894.18
2023-04-18T19:15:44.240Z,100888.80
2023-04-18T19:18:13.434Z,100887.17
2023-04-18T19:20:42.369Z,100886.23
2023-04-18T19:23:11.194Z,100882.45
2023-04-18T19:25:40.757Z,100883.10
2023-04-18T19:28:11.026Z,100880.55
2023-04-18T19:30:40.704Z,100878.52
2023-04-18T19:33:10.506Z,100878.63
2023-04-18T19:35:39.387Z,100877.12
2023-04-18T19:38:08.273Z,100872.11
2023-04-18T19:40:38.178Z,100871.91
2023-04-18T19:43:07.161Z,100873.43
2023-04-18T19:45:36.873Z,100875.86
2023-04-18T19:48:06.448Z,100870.84
2023-04-18T19:50:35.204Z,100869.53
2023-04-18T19:53:04.691Z,100865.40
2023-04-18T19:55:34.608Z,100867.81
2023-04-18T19:58:03.963Z,100865.98
2023-04-18T20:00:34.545Z,100862.73
2023-04-18T20:03:04.153Z,100861.77
2023-04-18T20:05:33.117Z,100863.80
2023-04-18T20:08:02.124Z,100860.30
2023-04-18T20:10:35.223Z,100857.39
2023-04-18T20:13:05.697Z,100853.52
2023-04-18T20:15:34.771Z,100856.05
2023-04-18T20:18:06.017Z,100852.55
2023-04-18T20:20:34.784Z,100852.23
2023-04-18T20:23:03.754Z,100850.67
2023-04-18T20:25:34.102Z,100846.23
2023-04-18T20:28:03.277Z,100842.20
2023-04-18T20:30:32.016Z,100843.99
2023-04-18T20:33:00.894Z,100843.56
2023-04-18T20:35:30.024Z,100841.34
2023-04-18T20:38:00.642Z,100844.78
2023-04-18T20:40:29.515Z,100846.80
2023-04-18T20:42:58.698Z,100839.77
2023-04-18T20:45:28.188Z,100833.69
2023-04-18T20:47:57.502Z,100829.95
2023-04-18T20:50:26.185Z,100831.52
2023-04-18T20:52:55.604Z,100827.98
2023-04-18T20:55:24.130Z,100828.88
2023-04-18T20:57:53.638Z,100824.46
2023-04-18T21:00:22.984Z,100822.91
2023-04-18T21:02:51.601Z,100819.45
2023-04-18T21:09:38.837Z,100813.45
2023-04-18T21:12:08.646Z,100805.35
2023-04-18T21:14:37.509Z,100802.57
2023-04-18T21:17:06.768Z,100802.29
2023-04-18T21:19:35.972Z,100801.49
2023-04-18T21:22:05.689Z,100797.27
2023-04-18T21:24:35.254Z,100794.47
2023-04-18T21:27:05.805Z,100793.08
2023-04-18T21:29:36.830Z,100793.13
2023-04-18T21:32:13.689Z,100790.17
2023-04-18T21:34:42.676Z,100785.58
2023-04-18T21:37:11.492Z,100784.02
2023-04-18T21:39:40.640Z,100783.91
2023-04-18T21:42:11.301Z,100781.20
2023-04-18T21:44:40.175Z,100775.88
2023-04-18T21:47:10.427Z,100775.77
2023-04-18T21:49:43.382Z,100776.69
2023-04-18T21:52:12.017Z,100774.42
2023-04-18T21:54:42.329Z,100768.25
2023-04-18T21:57:12.167Z,100767.06
2023-04-18T21:59:40.874Z,100764.70
2023-04-18T22:02:09.461Z,100766.42
2023-04-18T22:04:43.527Z,100763.11
2023-04-18T22:07:16.486Z,100759.26
2023-04-18T22:09:52.268Z,100761.09
2023-04-18T22:12:25.437Z,100760.42
2023-04-18T22:19:16.417Z,100758.27
2023-04-18T22:21:48.512Z,100761.67
2023-04-18T22:24:22.373Z,100756.61
2023-04-18T22:26:54.468Z,100757.04
2023-04-18T22:29:25.752Z,100750.55
2023-04-18T22:31:56.566Z,100748.91
2023-04-18T22:34:27.547Z,100746.57
2023-04-18T22:36:59.608Z,100741.98
2023-04-18T22:39:32.485Z,100741.25
2023-04-18T22:42:03.451Z,100742.11
2023-04-18T22:44:35.347Z,100737.67
2023-04-18T22:47:06.530Z,100734.73
2023-04-18T22:49:41.536Z,100733.83
2023-04-18T22:52:12.431Z,100731.21
2023-04-18T22:54:44.507Z,100731.80
2023-04-18T22:57:16.523Z,100726.43
2023-04-18T22:59:48.500Z,100722.95
2023-04-18T23:02:19.653Z,100719.52
2023-04-18T23:11:11.470Z,100708.36
2023-04-18T23:13:40.152Z,100711.34
2023-04-18T23:16:09.034Z,100710.61
2023-04-18T23:18:37.706Z,100707.31
2023-04-18T23:21:06.602Z,100704.71
2023-04-18T23:23:35.018Z,100703.56
2023-04-18T23:26:03.644Z,100703.42
2023-04-18T23:28:33.199Z,100703.77
2023-04-18T23:31:01.764Z,100699.59
2023-04-18T23:33:30.380Z,100697.02
2023-04-18T23:35:58.851Z,100690.77
2023-04-18T23:38:28.021Z,100686.69
2023-04-18T23:40:56.601Z,100683.38
2023-04-18T23:43:42.132Z,100675.52
2023-04-18T23:46:12.344Z,100673.55
2023-04-18T23:48:40.959Z,100672.80
2023-04-18T23:51:09.659Z,100675.00
2023-04-18T23:53:38.114Z,100670.94
2023-04-18T23:56:07.054Z,100666.59
2023-04-18T23:58:35.947Z,100667.08
